sensor_id;sensor_type;location;lat;lon;timestamp;P1;durP1;ratioP1;P2;durP2;ratioP2
73271;SDS011;61497;51.088;5.886;2023-03-01T00:01:05;7.80;;;6.32;;
73271;SDS011;61497;51.088;5.886;2023-03-01T00:03:35;6.93;;;5.40;;
73271;SDS011;61497;51.088;5.886;2023-03-01T00:06:02;6.13;;;4.57;;
73271;SDS011;61497;51.088;5.886;2023-03-01T00:08:28;6.10;;;5.00;;
73271;SDS011;61497;51.088;5.886;2023-03-01T00:13:33;5.97;;;4.68;;
73271;SDS011;61497;51.088;5.886;2023-03-01T00:16:01;6.22;;;5.00;;
73271;SDS011;61497;51.088;5.886;2023-03-01T00:18:30;6.90;;;5.50;;
73271;SDS011;61497;51.088;5.886;2023-03-01T00:20:56;6.85;;;5.28;;
73271;SDS011;61497;51.088;5.886;2023-03-01T00:23:21;6.70;;;5.30;;
73271;SDS011;61497;51.088;5.886;2023-03-01T00:25:47;6.18;;;4.60;;
73271;SDS011;61497;51.088;5.886;2023-03-01T00:28:13;6.53;;;5.30;;
73271;SDS011;61497;51.088;5.886;2023-03-01T00:30:38;7.00;;;5.50;;
73271;SDS011;61497;51.088;5.886;2023-03-01T00:33:04;6.70;;;4.73;;
73271;SDS011;61497;51.088;5.886;2023-03-01T00:35:29;7.43;;;5.83;;
73271;SDS011;61497;51.088;5.886;2023-03-01T00:37:57;6.90;;;5.63;;
73271;SDS011;61497;51.088;5.886;2023-03-01T00:40:32;6.60;;;5.50;;
73271;SDS011;61497;51.088;5.886;2023-03-01T00:42:59;7.20;;;5.68;;
73271;SDS011;61497;51.088;5.886;2023-03-01T00:45:24;7.13;;;5.80;;
73271;SDS011;61497;51.088;5.886;2023-03-01T00:47:50;6.68;;;5.32;;
73271;SDS011;61497;51.088;5.886;2023-03-01T00:50:16;7.20;;;5.35;;
73271;SDS011;61497;51.088;5.886;2023-03-01T00:52:42;7.50;;;6.23;;
73271;SDS011;61497;51.088;5.886;2023-03-01T00:55:08;7.45;;;5.85;;
73271;SDS011;61497;51.088;5.886;2023-03-01T00:57:34;6.93;;;5.15;;
73271;SDS011;61497;51.088;5.886;2023-03-01T00:59:59;6.22;;;5.50;;
73271;SDS011;61497;51.088;5.886;2023-03-01T01:02:24;6.80;;;6.10;;
73271;SDS011;61497;51.088;5.886;2023-03-01T01:04:50;6.63;;;5.87;;
73271;SDS011;61497;51.088;5.886;2023-03-01T01:07:15;7.23;;;6.43;;
73271;SDS011;61497;51.088;5.886;2023-03-01T01:09:41;6.53;;;5.50;;
73271;SDS011;61497;51.088;5.886;2023-03-01T01:12:06;6.93;;;5.53;;
73271;SDS011;61497;51.088;5.886;2023-03-01T01:14:32;6.93;;;6.05;;
73271;SDS011;61497;51.088;5.886;2023-03-01T01:16:58;6.67;;;5.30;;
73271;SDS011;61497;51.088;5.886;2023-03-01T01:19:24;6.87;;;5.83;;
73271;SDS011;61497;51.088;5.886;2023-03-01T01:21:50;6.60;;;5.45;;
73271;SDS011;61497;51.088;5.886;2023-03-01T01:24:16;6.38;;;5.63;;
73271;SDS011;61497;51.088;5.886;2023-03-01T01:26:41;6.50;;;5.30;;
73271;SDS011;61497;51.088;5.886;2023-03-01T01:29:07;6.38;;;5.25;;
73271;SDS011;61497;51.088;5.886;2023-03-01T01:31:35;6.38;;;5.47;;
73271;SDS011;61497;51.088;5.886;2023-03-01T01:34:02;6.90;;;6.00;;
73271;SDS011;61497;51.088;5.886;2023-03-01T01:36:28;6.72;;;5.97;;
73271;SDS011;61497;51.088;5.886;2023-03-01T01:38:54;6.57;;;4.90;;
73271;SDS011;61497;51.088;5.886;2023-03-01T01:41:20;6.30;;;5.38;;
73271;SDS011;61497;51.088;5.886;2023-03-01T01:43:47;6.90;;;5.85;;
73271;SDS011;61497;51.088;5.886;2023-03-01T01:49:16;6.93;;;6.07;;
73271;SDS011;61497;51.088;5.886;2023-03-01T01:55:31;6.80;;;5.82;;
73271;SDS011;61497;51.088;5.886;2023-03-01T01:57:44;6.60;;;5.07;;
73271;SDS011;61497;51.088;5.886;2023-03-01T02:00:12;6.88;;;5.90;;
73271;SDS011;61497;51.088;5.886;2023-03-01T02:02:40;6.50;;;5.23;;
73271;SDS011;61497;51.088;5.886;2023-03-01T02:05:20;6.35;;;5.18;;
73271;SDS011;61497;51.088;5.886;2023-03-01T02:08:05;6.50;;;5.57;;
73271;SDS011;61497;51.088;5.886;2023-03-01T02:10:32;6.60;;;5.70;;
73271;SDS011;61497;51.088;5.886;2023-03-01T02:13:00;7.43;;;6.13;;
73271;SDS011;61497;51.088;5.886;2023-03-01T02:15:27;7.47;;;5.30;;
73271;SDS011;61497;51.088;5.886;2023-03-01T02:17:57;6.55;;;5.63;;
73271;SDS011;61497;51.088;5.886;2023-03-01T02:20:32;6.30;;;5.00;;
73271;SDS011;61497;51.088;5.886;2023-03-01T02:23:08;7.00;;;6.22;;
73271;SDS011;61497;51.088;5.886;2023-03-01T02:25:35;6.77;;;5.73;;
73271;SDS011;61497;51.088;5.886;2023-03-01T02:30:45;6.90;;;5.55;;
73271;SDS011;61497;51.088;5.886;2023-03-01T02:33:31;7.47;;;6.68;;
73271;SDS011;61497;51.088;5.886;2023-03-01T02:36:01;6.82;;;5.97;;
73271;SDS011;61497;51.088;5.886;2023-03-01T02:38:28;6.55;;;5.82;;
73271;SDS011;61497;51.088;5.886;2023-03-01T02:40:54;7.13;;;6.43;;
73271;SDS011;61497;51.088;5.886;2023-03-01T02:43:20;6.15;;;4.95;;
73271;SDS011;61497;51.088;5.886;2023-03-01T02:45:49;6.50;;;5.72;;
73271;SDS011;61497;51.088;5.886;2023-03-01T02:48:15;7.45;;;6.15;;
73271;SDS011;61497;51.088;5.886;2023-03-01T02:53:32;6.57;;;5.38;;
73271;SDS011;61497;51.088;5.886;2023-03-01T02:56:04;6.60;;;5.65;;
73271;SDS011;61497;51.088;5.886;2023-03-01T02:58:29;6.93;;;5.40;;
73271;SDS011;61497;51.088;5.886;2023-03-01T03:00:55;6.33;;;5.27;;
73271;SDS011;61497;51.088;5.886;2023-03-01T03:03:21;7.05;;;5.90;;
73271;SDS011;61497;51.088;5.886;2023-03-01T03:05:47;7.30;;;5.47;;
73271;SDS011;61497;51.088;5.886;2023-03-01T03:08:13;7.20;;;6.20;;
73271;SDS011;61497;51.088;5.886;2023-03-01T03:10:41;6.82;;;6.13;;
73271;SDS011;61497;51.088;5.886;2023-03-01T03:13:09;6.68;;;5.95;;
73271;SDS011;61497;51.088;5.886;2023-03-01T03:15:35;6.95;;;6.05;;
73271;SDS011;61497;51.088;5.886;2023-03-01T03:18:01;6.38;;;5.65;;
73271;SDS011;61497;51.088;5.886;2023-03-01T03:20:30;7.10;;;5.95;;
73271;SDS011;61497;51.088;5.886;2023-03-01T03:22:56;7.00;;;5.90;;
73271;SDS011;61497;51.088;5.886;2023-03-01T03:25:23;6.25;;;4.88;;
73271;SDS011;61497;51.088;5.886;2023-03-01T03:27:49;8.43;;;6.03;;
73271;SDS011;61497;51.088;5.886;2023-03-01T03:30:21;6.80;;;5.30;;
73271;SDS011;61497;51.088;5.886;2023-03-01T03:32:47;6.82;;;5.60;;
73271;SDS011;61497;51.088;5.886;2023-03-01T03:35:18;6.60;;;5.85;;
73271;SDS011;61497;51.088;5.886;2023-03-01T03:37:49;6.57;;;5.00;;
73271;SDS011;61497;51.088;5.886;2023-03-01T03:40:37;6.35;;;5.43;;
73271;SDS011;61497;51.088;5.886;2023-03-01T03:43:04;6.65;;;5.22;;
73271;SDS011;61497;51.088;5.886;2023-03-01T03:45:31;6.60;;;5.90;;
73271;SDS011;61497;51.088;5.886;2023-03-01T03:47:58;8.40;;;6.18;;
73271;SDS011;61497;51.088;5.886;2023-03-01T03:50:24;7.00;;;5.95;;
73271;SDS011;61497;51.088;5.886;2023-03-01T03:52:49;6.33;;;5.17;;
73271;SDS011;61497;51.088;5.886;2023-03-01T03:55:15;5.97;;;4.80;;
73271;SDS011;61497;51.088;5.886;2023-03-01T03:57:44;7.05;;;5.70;;
73271;SDS011;61497;51.088;5.886;2023-03-01T04:00:16;6.03;;;4.53;;
73271;SDS011;61497;51.088;5.886;2023-03-01T04:02:45;6.65;;;5.95;;
73271;SDS011;61497;51.088;5.886;2023-03-01T04:05:12;6.03;;;4.90;;
73271;SDS011;61497;51.088;5.886;2023-03-01T04:07:39;6.10;;;5.18;;
73271;SDS011;61497;51.088;5.886;2023-03-01T04:10:05;6.60;;;5.88;;
73271;SDS011;61497;51.088;5.886;2023-03-01T04:12:33;7.00;;;5.95;;
73271;SDS011;61497;51.088;5.886;2023-03-01T04:15:00;7.30;;;5.50;;
73271;SDS011;61497;51.088;5.886;2023-03-01T04:17:26;7.90;;;5.18;;
73271;SDS011;61497;51.088;5.886;2023-03-01T04:19:51;7.63;;;6.13;;
73271;SDS011;61497;51.088;5.886;2023-03-01T04:22:17;6.47;;;5.47;;
73271;SDS011;61497;51.088;5.886;2023-03-01T04:24:43;7.10;;;6.03;;
73271;SDS011;61497;51.088;5.886;2023-03-01T04:27:09;6.53;;;5.53;;
73271;SDS011;61497;51.088;5.886;2023-03-01T04:29:35;6.97;;;5.30;;
73271;SDS011;61497;51.088;5.886;2023-03-01T04:32:01;6.80;;;6.03;;
73271;SDS011;61497;51.088;5.886;2023-03-01T04:34:27;6.53;;;5.57;;
73271;SDS011;61497;51.088;5.886;2023-03-01T04:36:53;6.95;;;5.55;;
73271;SDS011;61497;51.088;5.886;2023-03-01T04:39:19;6.77;;;5.97;;
73271;SDS011;61497;51.088;5.886;2023-03-01T04:41:44;6.40;;;5.60;;
73271;SDS011;61497;51.088;5.886;2023-03-01T04:44:09;6.77;;;6.07;;
73271;SDS011;61497;51.088;5.886;2023-03-01T04:46:35;7.85;;;6.28;;
73271;SDS011;61497;51.088;5.886;2023-03-01T04:49:01;7.53;;;6.55;;
73271;SDS011;61497;51.088;5.886;2023-03-01T04:51:27;7.10;;;6.40;;
73271;SDS011;61497;51.088;5.886;2023-03-01T04:53:53;7.17;;;5.50;;
73271;SDS011;61497;51.088;5.886;2023-03-01T04:56:18;6.47;;;5.35;;
73271;SDS011;61497;51.088;5.886;2023-03-01T04:58:44;7.13;;;6.03;;
73271;SDS011;61497;51.088;5.886;2023-03-01T05:01:13;7.10;;;6.17;;
73271;SDS011;61497;51.088;5.886;2023-03-01T05:03:41;6.93;;;5.38;;
73271;SDS011;61497;51.088;5.886;2023-03-01T05:06:11;7.32;;;6.45;;
73271;SDS011;61497;51.088;5.886;2023-03-01T05:08:40;7.23;;;6.13;;
73271;SDS011;61497;51.088;5.886;2023-03-01T05:11:07;7.32;;;5.72;;
73271;SDS011;61497;51.088;5.886;2023-03-01T05:13:36;7.20;;;6.05;;
73271;SDS011;61497;51.088;5.886;2023-03-01T05:16:03;7.90;;;6.82;;
73271;SDS011;61497;51.088;5.886;2023-03-01T05:18:30;6.17;;;4.90;;
73271;SDS011;61497;51.088;5.886;2023-03-01T05:21:07;7.63;;;6.30;;
73271;SDS011;61497;51.088;5.886;2023-03-01T05:23:36;7.43;;;6.53;;
73271;SDS011;61497;51.088;5.886;2023-03-01T05:26:03;6.80;;;5.68;;
73271;SDS011;61497;51.088;5.886;2023-03-01T05:28:29;7.63;;;6.15;;
73271;SDS011;61497;51.088;5.886;2023-03-01T05:30:55;6.10;;;4.97;;
73271;SDS011;61497;51.088;5.886;2023-03-01T05:33:21;7.50;;;6.07;;
73271;SDS011;61497;51.088;5.886;2023-03-01T05:35:47;7.35;;;6.00;;
73271;SDS011;61497;51.088;5.886;2023-03-01T05:38:13;11.68;;;7.85;;
73271;SDS011;61497;51.088;5.886;2023-03-01T05:40:39;10.13;;;7.05;;
73271;SDS011;61497;51.088;5.886;2023-03-01T05:43:06;9.82;;;7.50;;
73271;SDS011;61497;51.088;5.886;2023-03-01T05:45:32;9.82;;;7.20;;
73271;SDS011;61497;51.088;5.886;2023-03-01T05:47:58;7.30;;;5.50;;
73271;SDS011;61497;51.088;5.886;2023-03-01T05:50:27;9.30;;;7.05;;
73271;SDS011;61497;51.088;5.886;2023-03-01T05:53:01;8.17;;;5.97;;
73271;SDS011;61497;51.088;5.886;2023-03-01T05:55:31;7.78;;;5.80;;
73271;SDS011;61497;51.088;5.886;2023-03-01T05:58:00;7.60;;;6.10;;
73271;SDS011;61497;51.088;5.886;2023-03-01T06:00:26;8.45;;;6.88;;
73271;SDS011;61497;51.088;5.886;2023-03-01T06:02:53;7.10;;;5.83;;
73271;SDS011;61497;51.088;5.886;2023-03-01T06:05:19;7.88;;;6.43;;
73271;SDS011;61497;51.088;5.886;2023-03-01T06:07:45;6.85;;;5.63;;
73271;SDS011;61497;51.088;5.886;2023-03-01T06:10:11;7.50;;;6.00;;
73271;SDS011;61497;51.088;5.886;2023-03-01T06:12:38;6.43;;;5.32;;
73271;SDS011;61497;51.088;5.886;2023-03-01T06:15:05;7.97;;;7.10;;
73271;SDS011;61497;51.088;5.886;2023-03-01T06:17:32;7.35;;;6.40;;
73271;SDS011;61497;51.088;5.886;2023-03-01T06:20:02;7.68;;;6.72;;
73271;SDS011;61497;51.088;5.886;2023-03-01T06:22:32;6.27;;;5.20;;
73271;SDS011;61497;51.088;5.886;2023-03-01T06:24:57;6.47;;;5.43;;
73271;SDS011;61497;51.088;5.886;2023-03-01T06:27:22;6.40;;;5.43;;
73271;SDS011;61497;51.088;5.886;2023-03-01T06:29:48;6.73;;;5.80;;
73271;SDS011;61497;51.088;5.886;2023-03-01T06:32:13;6.33;;;4.87;;
73271;SDS011;61497;51.088;5.886;2023-03-01T06:34:39;7.00;;;5.57;;
73271;SDS011;61497;51.088;5.886;2023-03-01T06:37:04;7.05;;;6.00;;
73271;SDS011;61497;51.088;5.886;2023-03-01T06:39:31;6.70;;;5.45;;
73271;SDS011;61497;51.088;5.886;2023-03-01T06:41:57;6.80;;;6.03;;
73271;SDS011;61497;51.088;5.886;2023-03-01T06:44:22;7.10;;;6.20;;
73271;SDS011;61497;51.088;5.886;2023-03-01T06:46:49;6.40;;;5.25;;
73271;SDS011;61497;51.088;5.886;2023-03-01T06:49:14;6.50;;;5.07;;
73271;SDS011;61497;51.088;5.886;2023-03-01T06:51:41;7.13;;;5.67;;
73271;SDS011;61497;51.088;5.886;2023-03-01T06:54:06;7.47;;;5.93;;
73271;SDS011;61497;51.088;5.886;2023-03-01T06:56:32;6.90;;;5.90;;
73271;SDS011;61497;51.088;5.886;2023-03-01T06:58:58;6.80;;;5.47;;
73271;SDS011;61497;51.088;5.886;2023-03-01T07:01:23;7.00;;;5.88;;
73271;SDS011;61497;51.088;5.886;2023-03-01T07:03:48;6.70;;;5.43;;
73271;SDS011;61497;51.088;5.886;2023-03-01T07:06:14;7.40;;;6.40;;
73271;SDS011;61497;51.088;5.886;2023-03-01T07:08:39;7.65;;;5.95;;
73271;SDS011;61497;51.088;5.886;2023-03-01T07:11:05;6.43;;;4.97;;
73271;SDS011;61497;51.088;5.886;2023-03-01T07:13:30;7.03;;;6.03;;
73271;SDS011;61497;51.088;5.886;2023-03-01T07:15:56;7.38;;;6.50;;
73271;SDS011;61497;51.088;5.886;2023-03-01T07:18:21;6.63;;;5.20;;
73271;SDS011;61497;51.088;5.886;2023-03-01T07:20:47;6.53;;;5.27;;
73271;SDS011;61497;51.088;5.886;2023-03-01T07:23:12;7.63;;;5.63;;
73271;SDS011;61497;51.088;5.886;2023-03-01T07:25:38;8.88;;;5.60;;
73271;SDS011;61497;51.088;5.886;2023-03-01T07:28:03;10.40;;;7.53;;
73271;SDS011;61497;51.088;5.886;2023-03-01T07:30:29;9.33;;;7.03;;
73271;SDS011;61497;51.088;5.886;2023-03-01T07:32:54;8.07;;;5.50;;
73271;SDS011;61497;51.088;5.886;2023-03-01T07:35:21;8.98;;;7.30;;
73271;SDS011;61497;51.088;5.886;2023-03-01T07:37:47;8.50;;;6.65;;
73271;SDS011;61497;51.088;5.886;2023-03-01T07:40:12;7.70;;;5.57;;
73271;SDS011;61497;51.088;5.886;2023-03-01T07:42:37;8.63;;;6.93;;
73271;SDS011;61497;51.088;5.886;2023-03-01T07:45:04;8.10;;;6.75;;
73271;SDS011;61497;51.088;5.886;2023-03-01T07:47:30;7.20;;;5.80;;
73271;SDS011;61497;51.088;5.886;2023-03-01T07:49:56;8.15;;;6.88;;
73271;SDS011;61497;51.088;5.886;2023-03-01T07:52:21;7.93;;;6.20;;
73271;SDS011;61497;51.088;5.886;2023-03-01T07:54:47;7.53;;;6.10;;
73271;SDS011;61497;51.088;5.886;2023-03-01T07:57:12;8.83;;;7.10;;
73271;SDS011;61497;51.088;5.886;2023-03-01T07:59:37;8.80;;;6.40;;
73271;SDS011;61497;51.088;5.886;2023-03-01T08:02:03;9.90;;;6.67;;
73271;SDS011;61497;51.088;5.886;2023-03-01T08:04:28;9.30;;;6.50;;
73271;SDS011;61497;51.088;5.886;2023-03-01T08:06:54;8.20;;;6.03;;
73271;SDS011;61497;51.088;5.886;2023-03-01T08:09:19;8.93;;;6.13;;
73271;SDS011;61497;51.088;5.886;2023-03-01T08:11:45;7.80;;;6.07;;
73271;SDS011;61497;51.088;5.886;2023-03-01T08:14:11;7.68;;;5.72;;
73271;SDS011;61497;51.088;5.886;2023-03-01T08:16:36;7.93;;;6.10;;
73271;SDS011;61497;51.088;5.886;2023-03-01T08:19:05;8.37;;;6.37;;
73271;SDS011;61497;51.088;5.886;2023-03-01T08:21:32;7.22;;;6.13;;
73271;SDS011;61497;51.088;5.886;2023-03-01T08:23:59;7.20;;;5.75;;
73271;SDS011;61497;51.088;5.886;2023-03-01T08:26:25;6.15;;;5.30;;
73271;SDS011;61497;51.088;5.886;2023-03-01T08:28:51;7.17;;;5.90;;
73271;SDS011;61497;51.088;5.886;2023-03-01T08:33:44;7.18;;;5.75;;
73271;SDS011;61497;51.088;5.886;2023-03-01T08:36:15;7.45;;;5.80;;
73271;SDS011;61497;51.088;5.886;2023-03-01T08:38:41;7.10;;;5.13;;
73271;SDS011;61497;51.088;5.886;2023-03-01T08:41:06;7.10;;;6.00;;
73271;SDS011;61497;51.088;5.886;2023-03-01T08:43:32;7.00;;;5.43;;
73271;SDS011;61497;51.088;5.886;2023-03-01T08:45:57;7.55;;;6.38;;
73271;SDS011;61497;51.088;5.886;2023-03-01T08:48:22;7.40;;;6.17;;
73271;SDS011;61497;51.088;5.886;2023-03-01T08:50:48;7.50;;;5.60;;
73271;SDS011;61497;51.088;5.886;2023-03-01T08:53:13;7.07;;;5.80;;
73271;SDS011;61497;51.088;5.886;2023-03-01T08:55:39;7.70;;;6.00;;
73271;SDS011;61497;51.088;5.886;2023-03-01T08:58:04;7.90;;;5.55;;
73271;SDS011;61497;51.088;5.886;2023-03-01T09:00:29;7.78;;;6.40;;
73271;SDS011;61497;51.088;5.886;2023-03-01T09:02:55;7.33;;;6.03;;
73271;SDS011;61497;51.088;5.886;2023-03-01T09:05:20;6.83;;;5.57;;
73271;SDS011;61497;51.088;5.886;2023-03-01T09:07:45;7.53;;;5.90;;
73271;SDS011;61497;51.088;5.886;2023-03-01T09:10:11;7.83;;;6.33;;
73271;SDS011;61497;51.088;5.886;2023-03-01T09:12:36;7.75;;;6.22;;
73271;SDS011;61497;51.088;5.886;2023-03-01T09:15:02;7.60;;;5.97;;
73271;SDS011;61497;51.088;5.886;2023-03-01T09:17:28;7.93;;;6.93;;
73271;SDS011;61497;51.088;5.886;2023-03-01T09:19:53;8.63;;;6.67;;
73271;SDS011;61497;51.088;5.886;2023-03-01T09:22:18;7.90;;;6.37;;
73271;SDS011;61497;51.088;5.886;2023-03-01T09:24:44;7.97;;;5.97;;
73271;SDS011;61497;51.088;5.886;2023-03-01T09:27:09;7.90;;;5.90;;
73271;SDS011;61497;51.088;5.886;2023-03-01T09:29:36;9.27;;;6.90;;
73271;SDS011;61497;51.088;5.886;2023-03-01T09:32:01;8.73;;;7.10;;
73271;SDS011;61497;51.088;5.886;2023-03-01T09:34:27;9.50;;;7.63;;
73271;SDS011;61497;51.088;5.886;2023-03-01T09:36:52;8.37;;;6.97;;
73271;SDS011;61497;51.088;5.886;2023-03-01T09:39:18;9.07;;;6.70;;
73271;SDS011;61497;51.088;5.886;2023-03-01T09:46:57;8.77;;;7.03;;
73271;SDS011;61497;51.088;5.886;2023-03-01T09:49:35;8.82;;;7.10;;
73271;SDS011;61497;51.088;5.886;2023-03-01T09:54:36;8.80;;;6.38;;
73271;SDS011;61497;51.088;5.886;2023-03-01T09:59:56;8.40;;;6.88;;
73271;SDS011;61497;51.088;5.886;2023-03-01T10:05:27;9.32;;;7.05;;
73271;SDS011;61497;51.088;5.886;2023-03-01T10:10:35;9.77;;;7.43;;
73271;SDS011;61497;51.088;5.886;2023-03-01T10:13:04;9.45;;;7.25;;
73271;SDS011;61497;51.088;5.886;2023-03-01T10:15:42;9.60;;;7.45;;
73271;SDS011;61497;51.088;5.886;2023-03-01T10:18:14;9.98;;;7.25;;
73271;SDS011;61497;51.088;5.886;2023-03-01T10:23:41;8.67;;;6.67;;
73271;SDS011;61497;51.088;5.886;2023-03-01T10:31:08;11.33;;;7.87;;
73271;SDS011;61497;51.088;5.886;2023-03-01T10:33:37;9.30;;;7.50;;
73271;SDS011;61497;51.088;5.886;2023-03-01T10:36:04;11.17;;;8.10;;
73271;SDS011;61497;51.088;5.886;2023-03-01T10:38:31;9.90;;;7.50;;
73271;SDS011;61497;51.088;5.886;2023-03-01T10:41:13;9.73;;;7.38;;
73271;SDS011;61497;51.088;5.886;2023-03-01T10:43:45;11.80;;;8.87;;
73271;SDS011;61497;51.088;5.886;2023-03-01T10:46:28;9.45;;;7.45;;
73271;SDS011;61497;51.088;5.886;2023-03-01T10:51:40;10.27;;;7.37;;
73271;SDS011;61497;51.088;5.886;2023-03-01T10:54:17;10.57;;;7.80;;
73271;SDS011;61497;51.088;5.886;2023-03-01T10:56:56;9.73;;;7.00;;
73271;SDS011;61497;51.088;5.886;2023-03-01T10:59:31;9.98;;;7.43;;
73271;SDS011;61497;51.088;5.886;2023-03-01T11:02:03;9.90;;;7.85;;
73271;SDS011;61497;51.088;5.886;2023-03-01T11:05:01;9.57;;;7.63;;
73271;SDS011;61497;51.088;5.886;2023-03-01T11:07:51;9.38;;;7.57;;
73271;SDS011;61497;51.088;5.886;2023-03-01T11:10:19;10.27;;;7.72;;
73271;SDS011;61497;51.088;5.886;2023-03-01T11:12:50;8.00;;;6.35;;
73271;SDS011;61497;51.088;5.886;2023-03-01T11:15:26;9.85;;;7.72;;
73271;SDS011;61497;51.088;5.886;2023-03-01T11:17:53;10.03;;;7.50;;
73271;SDS011;61497;51.088;5.886;2023-03-01T11:20:24;9.25;;;6.88;;
73271;SDS011;61497;51.088;5.886;2023-03-01T11:22:57;10.05;;;7.82;;
73271;SDS011;61497;51.088;5.886;2023-03-01T11:25:26;10.65;;;7.60;;
73271;SDS011;61497;51.088;5.886;2023-03-01T11:27:53;9.77;;;7.57;;
73271;SDS011;61497;51.088;5.886;2023-03-01T11:33:08;10.48;;;7.38;;
73271;SDS011;61497;51.088;5.886;2023-03-01T11:35:41;9.07;;;7.20;;
73271;SDS011;61497;51.088;5.886;2023-03-01T11:38:22;8.50;;;6.00;;
73271;SDS011;61497;51.088;5.886;2023-03-01T11:41:04;9.38;;;7.35;;
73271;SDS011;61497;51.088;5.886;2023-03-01T11:43:52;8.47;;;6.23;;
73271;SDS011;61497;51.088;5.886;2023-03-01T11:51:48;8.80;;;6.70;;
73271;SDS011;61497;51.088;5.886;2023-03-01T11:57:17;9.63;;;7.30;;
73271;SDS011;61497;51.088;5.886;2023-03-01T12:05:24;8.98;;;7.05;;
73271;SDS011;61497;51.088;5.886;2023-03-01T12:14:30;10.18;;;7.63;;
73271;SDS011;61497;51.088;5.886;2023-03-01T12:25:18;10.03;;;7.70;;
73271;SDS011;61497;51.088;5.886;2023-03-01T12:28:04;10.77;;;8.18;;
73271;SDS011;61497;51.088;5.886;2023-03-01T12:30:59;9.20;;;7.18;;
73271;SDS011;61497;51.088;5.886;2023-03-01T12:39:51;9.10;;;7.10;;
73271;SDS011;61497;51.088;5.886;2023-03-01T12:42:14;8.98;;;6.85;;
73271;SDS011;61497;51.088;5.886;2023-03-01T12:44:46;9.95;;;7.47;;
73271;SDS011;61497;51.088;5.886;2023-03-01T12:47:35;9.68;;;6.82;;
73271;SDS011;61497;51.088;5.886;2023-03-01T12:50:21;10.32;;;8.00;;
73271;SDS011;61497;51.088;5.886;2023-03-01T12:57:52;10.35;;;8.30;;
73271;SDS011;61497;51.088;5.886;2023-03-01T13:00:29;11.18;;;8.57;;
73271;SDS011;61497;51.088;5.886;2023-03-01T13:02:58;9.95;;;7.80;;
73271;SDS011;61497;51.088;5.886;2023-03-01T13:05:34;10.00;;;6.97;;
73271;SDS011;61497;51.088;5.886;2023-03-01T13:10:39;11.20;;;8.30;;
73271;SDS011;61497;51.088;5.886;2023-03-01T13:13:14;10.50;;;8.23;;
73271;SDS011;61497;51.088;5.886;2023-03-01T13:15:44;10.30;;;7.63;;
73271;SDS011;61497;51.088;5.886;2023-03-01T13:28:38;9.90;;;7.13;;
73271;SDS011;61497;51.088;5.886;2023-03-01T13:31:10;9.88;;;8.02;;
73271;SDS011;61497;51.088;5.886;2023-03-01T13:33:56;9.65;;;7.00;;
73271;SDS011;61497;51.088;5.886;2023-03-01T13:41:57;9.75;;;7.32;;
73271;SDS011;61497;51.088;5.886;2023-03-01T13:44:37;9.73;;;7.32;;
73271;SDS011;61497;51.088;5.886;2023-03-01T13:52:39;9.93;;;8.27;;
73271;SDS011;61497;51.088;5.886;2023-03-01T13:57:53;9.80;;;7.53;;
73271;SDS011;61497;51.088;5.886;2023-03-01T14:00:39;10.85;;;8.63;;
73271;SDS011;61497;51.088;5.886;2023-03-01T14:03:09;9.93;;;7.47;;
73271;SDS011;61497;51.088;5.886;2023-03-01T14:05:34;9.73;;;7.55;;
73271;SDS011;61497;51.088;5.886;2023-03-01T14:08:01;9.50;;;6.97;;
73271;SDS011;61497;51.088;5.886;2023-03-01T14:10:31;9.48;;;7.90;;
73271;SDS011;61497;51.088;5.886;2023-03-01T14:15:45;8.90;;;7.07;;
73271;SDS011;61497;51.088;5.886;2023-03-01T14:18:36;9.18;;;7.05;;
73271;SDS011;61497;51.088;5.886;2023-03-01T14:21:08;8.70;;;6.93;;
73271;SDS011;61497;51.088;5.886;2023-03-01T14:23:33;9.30;;;7.43;;
73271;SDS011;61497;51.088;5.886;2023-03-01T14:26:00;8.30;;;6.67;;
73271;SDS011;61497;51.088;5.886;2023-03-01T14:28:27;8.90;;;7.22;;
73271;SDS011;61497;51.088;5.886;2023-03-01T14:30:54;9.07;;;6.97;;
73271;SDS011;61497;51.088;5.886;2023-03-01T14:33:23;9.95;;;7.30;;
73271;SDS011;61497;51.088;5.886;2023-03-01T14:38:34;8.75;;;7.38;;
73271;SDS011;61497;51.088;5.886;2023-03-01T14:41:06;9.25;;;7.03;;
73271;SDS011;61497;51.088;5.886;2023-03-01T14:43:34;7.67;;;5.77;;
73271;SDS011;61497;51.088;5.886;2023-03-01T14:46:00;7.75;;;5.95;;
73271;SDS011;61497;51.088;5.886;2023-03-01T14:48:27;9.40;;;6.65;;
73271;SDS011;61497;51.088;5.886;2023-03-01T14:50:53;8.60;;;6.10;;
73271;SDS011;61497;51.088;5.886;2023-03-01T14:53:20;8.38;;;5.50;;
73271;SDS011;61497;51.088;5.886;2023-03-01T14:55:51;8.67;;;7.03;;
73271;SDS011;61497;51.088;5.886;2023-03-01T14:58:20;8.73;;;6.50;;
73271;SDS011;61497;51.088;5.886;2023-03-01T15:00:54;8.85;;;7.03;;
73271;SDS011;61497;51.088;5.886;2023-03-01T15:06:02;7.60;;;6.22;;
73271;SDS011;61497;51.088;5.886;2023-03-01T15:08:28;7.60;;;5.83;;
73271;SDS011;61497;51.088;5.886;2023-03-01T15:13:31;7.72;;;6.07;;
73271;SDS011;61497;51.088;5.886;2023-03-01T15:16:07;7.80;;;6.15;;
73271;SDS011;61497;51.088;5.886;2023-03-01T15:18:37;8.85;;;6.47;;
73271;SDS011;61497;51.088;5.886;2023-03-01T15:21:08;7.50;;;5.80;;
73271;SDS011;61497;51.088;5.886;2023-03-01T15:23:39;7.82;;;5.65;;
73271;SDS011;61497;51.088;5.886;2023-03-01T15:26:05;8.18;;;6.13;;
73271;SDS011;61497;51.088;5.886;2023-03-01T15:28:31;9.47;;;7.33;;
73271;SDS011;61497;51.088;5.886;2023-03-01T15:31:03;8.20;;;6.60;;
73271;SDS011;61497;51.088;5.886;2023-03-01T15:33:41;8.50;;;6.25;;
73271;SDS011;61497;51.088;5.886;2023-03-01T15:38:57;8.48;;;5.97;;
73271;SDS011;61497;51.088;5.886;2023-03-01T15:41:31;7.93;;;6.68;;
73271;SDS011;61497;51.088;5.886;2023-03-01T15:44:23;8.73;;;5.85;;
73271;SDS011;61497;51.088;5.886;2023-03-01T15:46:54;7.90;;;6.38;;
73271;SDS011;61497;51.088;5.886;2023-03-01T15:49:24;8.37;;;6.27;;
73271;SDS011;61497;51.088;5.886;2023-03-01T15:51:53;7.47;;;6.45;;
73271;SDS011;61497;51.088;5.886;2023-03-01T15:54:20;8.15;;;6.18;;
73271;SDS011;61497;51.088;5.886;2023-03-01T15:56:47;8.30;;;6.33;;
73271;SDS011;61497;51.088;5.886;2023-03-01T15:59:12;8.70;;;6.43;;
73271;SDS011;61497;51.088;5.886;2023-03-01T16:01:39;8.63;;;6.60;;
73271;SDS011;61497;51.088;5.886;2023-03-01T16:04:05;8.73;;;6.97;;
73271;SDS011;61497;51.088;5.886;2023-03-01T16:06:30;7.70;;;5.90;;
73271;SDS011;61497;51.088;5.886;2023-03-01T16:08:56;7.80;;;6.32;;
73271;SDS011;61497;51.088;5.886;2023-03-01T16:11:21;8.23;;;6.03;;
73271;SDS011;61497;51.088;5.886;2023-03-01T16:13:47;8.47;;;6.60;;
73271;SDS011;61497;51.088;5.886;2023-03-01T16:16:13;8.02;;;6.25;;
73271;SDS011;61497;51.088;5.886;2023-03-01T16:18:44;7.65;;;5.93;;
73271;SDS011;61497;51.088;5.886;2023-03-01T16:21:12;7.75;;;6.32;;
73271;SDS011;61497;51.088;5.886;2023-03-01T16:23:40;7.73;;;6.20;;
73271;SDS011;61497;51.088;5.886;2023-03-01T16:26:06;8.32;;;6.13;;
73271;SDS011;61497;51.088;5.886;2023-03-01T16:28:31;8.27;;;6.17;;
73271;SDS011;61497;51.088;5.886;2023-03-01T16:30:57;7.68;;;5.97;;
73271;SDS011;61497;51.088;5.886;2023-03-01T16:33:22;7.70;;;6.00;;
73271;SDS011;61497;51.088;5.886;2023-03-01T16:35:47;7.83;;;5.77;;
73271;SDS011;61497;51.088;5.886;2023-03-01T16:38:14;8.52;;;7.00;;
73271;SDS011;61497;51.088;5.886;2023-03-01T16:40:39;8.50;;;6.27;;
73271;SDS011;61497;51.088;5.886;2023-03-01T16:43:12;7.45;;;5.65;;
73271;SDS011;61497;51.088;5.886;2023-03-01T16:45:37;7.17;;;5.70;;
73271;SDS011;61497;51.088;5.886;2023-03-01T16:48:05;7.80;;;5.93;;
73271;SDS011;61497;51.088;5.886;2023-03-01T16:50:31;8.13;;;6.30;;
73271;SDS011;61497;51.088;5.886;2023-03-01T16:52:56;7.18;;;5.00;;
73271;SDS011;61497;51.088;5.886;2023-03-01T16:55:22;7.00;;;4.60;;
73271;SDS011;61497;51.088;5.886;2023-03-01T16:57:48;6.90;;;4.93;;
73271;SDS011;61497;51.088;5.886;2023-03-01T17:00:13;7.00;;;5.30;;
73271;SDS011;61497;51.088;5.886;2023-03-01T17:02:39;6.78;;;5.00;;